»·PEaware :: DAL821 KPDX-KLAX

DAL821 :: KPDX-KLAX

FLIGHT INFORMATION

Flight Status: Arrived
Operator:
Delta Air Lines
More flights by this operator :: More flights under this callsign
Pilot: Andre N. (13929)
Aircraft: BOEING 757-300
(B753)
More flights by this aircraft type
Origin: KPDX Portland Intl
United States
Destination: KLAX Los Angeles Intl
United States
More flights between these airports :: More routes between these airports
Route: +CASCD2 JOGEN Q7 JAGWA BURGL IRNMN1
File this flight plan on PilotEdge
Remarks:
Altitude:
(Current/Filed)
39,000ft
Speed:
(Current/Filed)
450kts
Departed: 24-Apr-18 08:03 AM
Arrived: 24-Apr-18 10:12 AM
Distance/Time
Traveled:
724nm/2:09
Distance/Time
To Go:
Arrived

Flight Plot

Page will automatically refresh every two minutes.

Flight plan parsing failed; only flown route is shown


Map Options




Map Legend


Flown Route
Filed Route
Departure Airport
Arrival Airport
Navaid (VOR, NDB)
Fix

Horizontal Profiles

Position Reports

Time Latitude Longitude Heading Altitude Ground
Speed
24-Apr-18 07:15 45.591079 -122.593460 208 41ft 0kts
24-Apr-18 07:16 45.591079 -122.593460 208 40ft 0kts
24-Apr-18 07:17 45.591079 -122.593460 208 40ft 0kts
24-Apr-18 07:18 45.591079 -122.593460 208 40ft 0kts
24-Apr-18 07:19 45.591079 -122.593460 208 40ft 0kts
24-Apr-18 07:20 45.591079 -122.593460 208 40ft 0kts
24-Apr-18 07:21 45.591079 -122.593460 208 40ft 0kts
24-Apr-18 07:22 45.591079 -122.593460 208 40ft 0kts
24-Apr-18 07:23 45.591079 -122.593460 208 40ft 0kts
24-Apr-18 07:24 45.591079 -122.593460 208 40ft 0kts
24-Apr-18 07:25 45.591079 -122.593460 208 40ft 0kts
24-Apr-18 07:26 45.591079 -122.593460 208 40ft 0kts
24-Apr-18 07:27 45.591079 -122.593460 208 40ft 0kts
24-Apr-18 07:28 45.591079 -122.593460 208 40ft 0kts
24-Apr-18 07:29 45.591079 -122.593460 208 40ft 0kts
24-Apr-18 07:30 45.591079 -122.593460 208 40ft 0kts
24-Apr-18 07:31 45.591079 -122.593460 208 40ft 0kts
24-Apr-18 07:32 45.591079 -122.593460 208 40ft 0kts
24-Apr-18 07:33 45.591079 -122.593460 208 40ft 0kts
24-Apr-18 07:34 45.591079 -122.593460 208 40ft 0kts
24-Apr-18 07:40 45.591079 -122.593461 208 41ft 0kts
24-Apr-18 07:41 45.591079 -122.593461 208 40ft 0kts
24-Apr-18 07:42 45.591079 -122.593461 208 40ft 0kts
24-Apr-18 07:43 45.591079 -122.593461 208 40ft 0kts
24-Apr-18 07:44 45.591079 -122.593461 208 40ft 0kts
24-Apr-18 07:45 45.591079 -122.593461 208 40ft 0kts
24-Apr-18 07:46 45.591079 -122.593461 208 40ft 0kts
24-Apr-18 07:47 45.591079 -122.593461 208 40ft 0kts
24-Apr-18 07:48 45.591079 -122.593461 208 40ft 0kts
24-Apr-18 07:49 45.591079 -122.593461 208 40ft 0kts
24-Apr-18 07:50 45.591079 -122.593461 208 40ft 0kts
24-Apr-18 07:51 45.591079 -122.593461 208 40ft 0kts
24-Apr-18 07:52 45.591079 -122.593461 208 40ft 0kts
24-Apr-18 07:53 45.591513 -122.593122 225 40ft 2kts
24-Apr-18 07:54 45.591436 -122.592363 297 40ft 2kts
24-Apr-18 07:55 45.591237 -122.591842 298 40ft 0kts
24-Apr-18 07:56 45.591237 -122.591842 298 40ft 0kts
24-Apr-18 07:57 45.591251 -122.591877 298 40ft 2kts
24-Apr-18 07:58 45.592238 -122.594416 299 40ft 9kts
24-Apr-18 07:59 45.593619 -122.597771 322 40ft 10kts
24-Apr-18 08:00 45.594219 -122.597737 32 40ft 0kts
24-Apr-18 08:01 45.594761 -122.595622 111 40ft 12kts
24-Apr-18 08:02 45.582973 -122.564887 113 460ft 160kts
24-Apr-18 08:03 45.573133 -122.507198 99 2471ft 175kts
24-Apr-18 08:04 45.561397 -122.436695 105 5039ft 196kts
24-Apr-18 08:05 45.546262 -122.353790 106 7664ft 228kts
24-Apr-18 08:06 45.508217 -122.295174 146 10284ft 237kts
24-Apr-18 08:07 45.437300 -122.261704 167 12066ft 303kts
24-Apr-18 08:08 45.353545 -122.237089 168 15164ft 319kts
24-Apr-18 08:09 45.266341 -122.211645 168 18057ft 331kts
24-Apr-18 08:10 45.176850 -122.185648 169 20540ft 344kts
24-Apr-18 08:11 45.083234 -122.158549 170 22759ft 358kts
24-Apr-18 08:12 44.989822 -122.102222 156 24778ft 376kts
24-Apr-18 08:13 44.897119 -122.038402 156 25796ft 413kts
24-Apr-18 08:14 44.798928 -121.970882 156 26388ft 456kts
24-Apr-18 08:15 44.684577 -121.892538 156 28221ft 471kts
24-Apr-18 08:16 44.567210 -121.812507 156 29970ft 481kts
24-Apr-18 08:17 44.449525 -121.732616 156 31903ft 481kts
24-Apr-18 08:18 44.329689 -121.655518 166 33556ft 477kts
24-Apr-18 08:19 44.201220 -121.621830 173 35143ft 471kts
24-Apr-18 08:20 44.073293 -121.591953 173 36530ft 468kts
24-Apr-18 08:21 43.945484 -121.562502 173 37348ft 468kts
24-Apr-18 08:22 43.827589 -121.535484 173 37350ft 467kts
24-Apr-18 08:23 43.700523 -121.506491 173 37350ft 467kts
24-Apr-18 08:24 43.572494 -121.477399 173 37350ft 467kts
24-Apr-18 08:25 43.444794 -121.448508 173 37350ft 467kts
24-Apr-18 08:26 43.317214 -121.419766 173 37350ft 467kts
24-Apr-18 08:27 43.189371 -121.391088 173 37350ft 467kts
24-Apr-18 08:28 43.061307 -121.362479 173 37288ft 467kts
24-Apr-18 08:29 42.938063 -121.335063 174 37262ft 466kts
24-Apr-18 08:30 42.817779 -121.308417 174 37264ft 465kts
24-Apr-18 08:31 42.690412 -121.280317 174 37264ft 465kts
24-Apr-18 08:32 42.563290 -121.252386 174 37264ft 465kts
24-Apr-18 08:33 42.435748 -121.224476 174 37263ft 465kts
24-Apr-18 08:34 42.308668 -121.196782 174 37263ft 465kts
24-Apr-18 08:35 42.181281 -121.169134 174 37267ft 466kts
24-Apr-18 08:36 42.053729 -121.141563 174 37271ft 467kts
24-Apr-18 08:37 41.925301 -121.113916 174 37265ft 468kts
24-Apr-18 08:38 41.811481 -121.089506 174 37265ft 468kts
24-Apr-18 08:39 41.683673 -121.062204 174 37265ft 470kts
24-Apr-18 08:40 41.554624 -121.034745 174 37265ft 471kts
24-Apr-18 08:41 41.425672 -121.007419 174 37265ft 472kts
24-Apr-18 08:42 41.274680 -120.975561 174 37265ft 473kts
24-Apr-18 08:43 41.166772 -120.952885 174 37265ft 474kts
24-Apr-18 08:44 41.037431 -120.925805 174 37265ft 472kts
24-Apr-18 08:45 40.908298 -120.910837 180 37267ft 468kts
24-Apr-18 08:46 40.816669 -120.903500 180 37273ft 468kts
24-Apr-18 08:47 40.688626 -120.893280 180 37275ft 468kts
24-Apr-18 08:48 40.559198 -120.882990 180 37275ft 468kts
24-Apr-18 08:49 40.430107 -120.872766 180 37275ft 468kts
24-Apr-18 08:50 40.300881 -120.862571 180 37275ft 468kts
24-Apr-18 08:51 40.171695 -120.852417 180 37275ft 468kts
24-Apr-18 08:52 40.042999 -120.842341 180 37275ft 468kts
24-Apr-18 08:53 39.913929 -120.832273 180 37242ft 468kts
24-Apr-18 08:54 39.800570 -120.823465 180 37198ft 468kts
24-Apr-18 08:55 39.673829 -120.813649 180 37174ft 468kts
24-Apr-18 08:56 39.544927 -120.803703 180 37175ft 468kts
24-Apr-18 08:57 39.415424 -120.793746 180 37180ft 468kts
24-Apr-18 08:58 39.286460 -120.783868 180 37184ft 468kts
24-Apr-18 08:59 39.161760 -120.774351 180 37186ft 468kts
24-Apr-18 09:00 39.032875 -120.764551 180 37184ft 468kts
24-Apr-18 09:01 38.904683 -120.754853 179 37125ft 461kts
24-Apr-18 09:02 38.798477 -120.746827 178 37108ft 460kts
24-Apr-18 09:03 38.671236 -120.737246 178 37111ft 460kts
24-Apr-18 09:04 38.547163 -120.727938 178 37110ft 460kts
24-Apr-18 09:05 38.420460 -120.718470 178 37076ft 460kts
24-Apr-18 09:06 38.293181 -120.708989 178 37064ft 460kts
24-Apr-18 09:07 38.166023 -120.699550 179 37064ft 460kts
24-Apr-18 09:08 38.038861 -120.690146 178 37064ft 460kts
24-Apr-18 09:09 37.911780 -120.680779 178 37063ft 460kts
24-Apr-18 09:10 37.787798 -120.671678 178 37046ft 460kts
24-Apr-18 09:11 37.660727 -120.662376 178 37038ft 460kts
24-Apr-18 09:12 37.532908 -120.653052 178 37038ft 460kts
24-Apr-18 09:13 37.405760 -120.643807 178 37037ft 460kts
24-Apr-18 09:14 37.279309 -120.621240 168 37034ft 464kts
24-Apr-18 09:15 37.154679 -120.581154 167 37029ft 464kts
24-Apr-18 09:16 37.030404 -120.540958 167 37027ft 460kts
24-Apr-18 09:17 36.907302 -120.501227 167 37030ft 457kts
24-Apr-18 09:18 36.787656 -120.462736 167 37048ft 457kts
24-Apr-18 09:19 36.664977 -120.423391 167 37048ft 457kts
24-Apr-18 09:20 36.542431 -120.384219 167 37048ft 457kts
24-Apr-18 09:21 36.420750 -120.345449 168 37045ft 457kts
24-Apr-18 09:22 36.298339 -120.306572 168 37044ft 457kts
24-Apr-18 09:23 36.175927 -120.267823 168 37047ft 457kts
24-Apr-18 09:24 36.053942 -120.229333 168 37043ft 457kts
24-Apr-18 09:25 35.932208 -120.191046 168 37052ft 457kts
24-Apr-18 09:26 35.815749 -120.154527 168 37071ft 457kts
24-Apr-18 09:27 35.693665 -120.116263 166 37079ft 457kts
24-Apr-18 09:28 35.581186 -120.043344 151 37082ft 463kts
24-Apr-18 09:29 35.472216 -119.961623 151 37084ft 463kts
24-Apr-18 09:30 35.363153 -119.879829 150 35413ft 464kts
24-Apr-18 09:31 35.255696 -119.792852 145 33367ft 471kts
24-Apr-18 09:32 35.151347 -119.695658 144 31380ft 473kts
24-Apr-18 09:33 35.050598 -119.601851 144 29645ft 442kts
24-Apr-18 09:34 34.956063 -119.514080 145 27993ft 423kts
24-Apr-18 09:35 34.866460 -119.432542 147 26490ft 412kts
24-Apr-18 09:36 34.775550 -119.351293 147 25012ft 405kts
24-Apr-18 09:37 34.708990 -119.292597 148 23456ft 396kts
24-Apr-18 09:38 34.641682 -119.233889 147 21831ft 383kts
24-Apr-18 09:39 34.556714 -119.160524 146 19839ft 371kts
24-Apr-18 09:40 34.474459 -119.087663 146 18098ft 363kts
24-Apr-18 09:41 34.394699 -119.017980 146 16313ft 354kts
24-Apr-18 09:42 34.316274 -118.948994 144 14691ft 347kts
24-Apr-18 09:43 34.245491 -118.884668 144 13391ft 309kts
24-Apr-18 09:44 34.178308 -118.822956 143 12092ft 301kts
24-Apr-18 09:45 34.116587 -118.758056 138 10796ft 289kts
24-Apr-18 09:46 34.057554 -118.693942 138 9503ft 284kts
24-Apr-18 09:47 34.025394 -118.613068 96 8241ft 273kts
24-Apr-18 09:48 34.017406 -118.532950 97 7686ft 237kts
24-Apr-18 09:49 34.011113 -118.455129 83 6980ft 232kts
24-Apr-18 09:50 34.023570 -118.379773 79 6441ft 222kts
24-Apr-18 09:51 34.031755 -118.313727 84 5976ft 198kts
24-Apr-18 09:52 34.039262 -118.248504 82 5981ft 199kts
24-Apr-18 09:53 34.045921 -118.183521 82 5986ft 199kts
24-Apr-18 09:54 34.052052 -118.120008 82 5199ft 196kts
24-Apr-18 09:55 34.057780 -118.060895 82 4377ft 192kts
24-Apr-18 09:56 34.063673 -118.001358 82 4001ft 191kts
24-Apr-18 09:57 34.069519 -117.942615 82 4003ft 191kts
24-Apr-18 09:58 34.075222 -117.885310 83 4006ft 191kts
24-Apr-18 09:59 34.057299 -117.856332 176 4015ft 193kts
24-Apr-18 10:00 34.021450 -117.892698 231 3999ft 191kts
24-Apr-18 10:01 33.999052 -117.944524 263 4003ft 191kts
24-Apr-18 10:02 33.992711 -118.005093 263 4040ft 179kts
24-Apr-18 10:03 33.986759 -118.063374 263 4018ft 159kts
24-Apr-18 10:04 33.981423 -118.116220 263 4024ft 158kts
24-Apr-18 10:05 33.976198 -118.167870 263 3933ft 148kts
24-Apr-18 10:06 33.971485 -118.214072 264 3248ft 144kts
24-Apr-18 10:07 33.966602 -118.262088 262 2468ft 145kts
24-Apr-18 10:08 33.962508 -118.302012 262 1811ft 144kts
24-Apr-18 10:09 33.958551 -118.348368 261 987ft 131kts
24-Apr-18 10:10 33.952922 -118.394284 263 306ft 146kts
24-Apr-18 10:11 33.948876 -118.426273 230 137ft 14kts
24-Apr-18 10:12 33.948118 -118.427171 217 137ft 13kts
24-Apr-18 10:13 33.946409 -118.426565 84 136ft 8kts
24-Apr-18 10:14 33.946752 -118.423111 83 136ft 16kts
24-Apr-18 10:15 33.947583 -118.415054 82 136ft 27kts
24-Apr-18 10:16 33.947957 -118.408895 151 136ft 9kts
24-Apr-18 10:17 33.947086 -118.408410 137 137ft 0kts
24-Apr-18 10:18 33.947086 -118.408410 137 137ft 0kts

Navigation Log

Ident Type
Flight plan parsing failed, navigation log unavailable